sensor_id;sensor_type;location;lat;lon;timestamp;P1;durP1;ratioP1;P2;durP2;ratioP2
22435;SDS011;11385;50.822;4.324;2023-04-25T00:00:58;15.13;;;4.55;;
22435;SDS011;11385;50.822;4.324;2023-04-25T00:03:25;17.35;;;4.50;;
22435;SDS011;11385;50.822;4.324;2023-04-25T00:05:52;24.20;;;4.90;;
22435;SDS011;11385;50.822;4.324;2023-04-25T00:08:19;13.98;;;3.30;;
22435;SDS011;11385;50.822;4.324;2023-04-25T00:10:45;14.75;;;4.20;;
22435;SDS011;11385;50.822;4.324;2023-04-25T00:13:12;16.90;;;3.98;;
22435;SDS011;11385;50.822;4.324;2023-04-25T00:15:40;15.00;;;3.83;;
22435;SDS011;11385;50.822;4.324;2023-04-25T00:18:07;13.15;;;3.83;;
22435;SDS011;11385;50.822;4.324;2023-04-25T00:20:35;18.12;;;4.45;;
22435;SDS011;11385;50.822;4.324;2023-04-25T00:23:01;21.25;;;5.33;;
22435;SDS011;11385;50.822;4.324;2023-04-25T00:25:28;17.20;;;4.12;;
22435;SDS011;11385;50.822;4.324;2023-04-25T00:27:55;17.12;;;4.87;;
22435;SDS011;11385;50.822;4.324;2023-04-25T00:30:24;21.80;;;4.78;;
22435;SDS011;11385;50.822;4.324;2023-04-25T00:32:50;15.08;;;4.42;;
22435;SDS011;11385;50.822;4.324;2023-04-25T00:35:17;16.25;;;4.30;;
22435;SDS011;11385;50.822;4.324;2023-04-25T00:37:44;14.40;;;4.25;;
22435;SDS011;11385;50.822;4.324;2023-04-25T00:40:11;17.37;;;4.75;;
22435;SDS011;11385;50.822;4.324;2023-04-25T00:42:37;18.87;;;5.00;;
22435;SDS011;11385;50.822;4.324;2023-04-25T00:45:05;17.75;;;4.58;;
22435;SDS011;11385;50.822;4.324;2023-04-25T00:47:33;17.05;;;5.03;;
22435;SDS011;11385;50.822;4.324;2023-04-25T00:50:01;14.85;;;4.40;;
22435;SDS011;11385;50.822;4.324;2023-04-25T00:52:28;16.05;;;4.37;;
22435;SDS011;11385;50.822;4.324;2023-04-25T00:54:56;20.12;;;4.37;;
22435;SDS011;11385;50.822;4.324;2023-04-25T00:57:22;17.87;;;4.45;;
22435;SDS011;11385;50.822;4.324;2023-04-25T00:59:50;15.68;;;4.22;;
22435;SDS011;11385;50.822;4.324;2023-04-25T01:02:19;20.05;;;4.95;;
22435;SDS011;11385;50.822;4.324;2023-04-25T01:04:47;15.35;;;4.30;;
22435;SDS011;11385;50.822;4.324;2023-04-25T01:07:14;17.42;;;5.00;;
22435;SDS011;11385;50.822;4.324;2023-04-25T01:09:41;16.50;;;4.33;;
22435;SDS011;11385;50.822;4.324;2023-04-25T01:12:08;23.12;;;5.15;;
22435;SDS011;11385;50.822;4.324;2023-04-25T01:14:35;18.25;;;5.85;;
22435;SDS011;11385;50.822;4.324;2023-04-25T01:17:01;36.63;;;10.40;;
22435;SDS011;11385;50.822;4.324;2023-04-25T01:19:28;12.47;;;4.50;;
22435;SDS011;11385;50.822;4.324;2023-04-25T01:21:56;18.00;;;5.47;;
22435;SDS011;11385;50.822;4.324;2023-04-25T01:24:23;18.12;;;5.22;;
22435;SDS011;11385;50.822;4.324;2023-04-25T01:26:50;20.20;;;5.20;;
22435;SDS011;11385;50.822;4.324;2023-04-25T01:29:17;17.00;;;5.28;;
22435;SDS011;11385;50.822;4.324;2023-04-25T01:31:45;20.32;;;5.17;;
22435;SDS011;11385;50.822;4.324;2023-04-25T01:34:13;22.05;;;5.20;;
22435;SDS011;11385;50.822;4.324;2023-04-25T01:36:40;19.27;;;5.10;;
22435;SDS011;11385;50.822;4.324;2023-04-25T01:39:07;18.90;;;4.83;;
22435;SDS011;11385;50.822;4.324;2023-04-25T01:41:35;21.97;;;5.42;;
22435;SDS011;11385;50.822;4.324;2023-04-25T01:44:02;18.15;;;5.20;;
22435;SDS011;11385;50.822;4.324;2023-04-25T01:46:29;20.10;;;5.45;;
22435;SDS011;11385;50.822;4.324;2023-04-25T01:48:56;20.68;;;5.58;;
22435;SDS011;11385;50.822;4.324;2023-04-25T01:51:23;18.95;;;5.28;;
22435;SDS011;11385;50.822;4.324;2023-04-25T01:53:50;17.67;;;5.62;;
22435;SDS011;11385;50.822;4.324;2023-04-25T01:56:17;19.10;;;5.20;;
22435;SDS011;11385;50.822;4.324;2023-04-25T01:58:45;24.47;;;5.20;;
22435;SDS011;11385;50.822;4.324;2023-04-25T02:01:11;19.17;;;4.90;;
22435;SDS011;11385;50.822;4.324;2023-04-25T02:03:39;18.65;;;5.47;;
22435;SDS011;11385;50.822;4.324;2023-04-25T02:06:06;22.20;;;5.10;;
22435;SDS011;11385;50.822;4.324;2023-04-25T02:08:32;15.93;;;4.83;;
22435;SDS011;11385;50.822;4.324;2023-04-25T02:10:59;20.95;;;5.42;;
22435;SDS011;11385;50.822;4.324;2023-04-25T02:13:26;15.28;;;4.83;;
22435;SDS011;11385;50.822;4.324;2023-04-25T02:15:53;15.93;;;5.55;;
22435;SDS011;11385;50.822;4.324;2023-04-25T02:18:19;24.23;;;5.70;;
22435;SDS011;11385;50.822;4.324;2023-04-25T02:20:46;16.00;;;5.92;;
22435;SDS011;11385;50.822;4.324;2023-04-25T02:23:13;22.80;;;5.25;;
22435;SDS011;11385;50.822;4.324;2023-04-25T02:25:42;16.73;;;5.03;;
22435;SDS011;11385;50.822;4.324;2023-04-25T02:28:08;22.93;;;6.10;;
22435;SDS011;11385;50.822;4.324;2023-04-25T02:30:36;20.97;;;5.67;;
22435;SDS011;11385;50.822;4.324;2023-04-25T02:33:02;17.10;;;4.75;;
22435;SDS011;11385;50.822;4.324;2023-04-25T02:35:29;17.15;;;5.53;;
22435;SDS011;11385;50.822;4.324;2023-04-25T02:37:56;19.67;;;5.62;;
22435;SDS011;11385;50.822;4.324;2023-04-25T02:40:23;21.82;;;5.92;;
22435;SDS011;11385;50.822;4.324;2023-04-25T02:42:49;19.87;;;5.37;;
22435;SDS011;11385;50.822;4.324;2023-04-25T02:45:17;17.90;;;5.87;;
22435;SDS011;11385;50.822;4.324;2023-04-25T02:47:43;23.83;;;5.83;;
22435;SDS011;11385;50.822;4.324;2023-04-25T02:50:10;19.98;;;5.72;;
22435;SDS011;11385;50.822;4.324;2023-04-25T02:52:36;17.57;;;5.30;;
22435;SDS011;11385;50.822;4.324;2023-04-25T02:55:03;20.40;;;5.85;;
22435;SDS011;11385;50.822;4.324;2023-04-25T02:57:30;28.87;;;6.15;;
22435;SDS011;11385;50.822;4.324;2023-04-25T02:59:57;21.50;;;5.95;;
22435;SDS011;11385;50.822;4.324;2023-04-25T03:02:24;26.65;;;5.50;;
22435;SDS011;11385;50.822;4.324;2023-04-25T03:04:50;21.57;;;6.65;;
22435;SDS011;11385;50.822;4.324;2023-04-25T03:07:18;24.95;;;5.80;;
22435;SDS011;11385;50.822;4.324;2023-04-25T03:09:45;20.12;;;5.62;;
22435;SDS011;11385;50.822;4.324;2023-04-25T03:12:11;17.17;;;5.10;;
22435;SDS011;11385;50.822;4.324;2023-04-25T03:14:38;24.10;;;5.60;;
22435;SDS011;11385;50.822;4.324;2023-04-25T03:17:06;13.05;;;4.50;;
22435;SDS011;11385;50.822;4.324;2023-04-25T03:19:32;24.10;;;6.35;;
22435;SDS011;11385;50.822;4.324;2023-04-25T03:21:59;26.50;;;5.72;;
22435;SDS011;11385;50.822;4.324;2023-04-25T03:24:26;19.02;;;5.17;;
22435;SDS011;11385;50.822;4.324;2023-04-25T03:26:53;23.42;;;5.22;;
22435;SDS011;11385;50.822;4.324;2023-04-25T03:29:20;16.95;;;5.20;;
22435;SDS011;11385;50.822;4.324;2023-04-25T03:31:49;17.73;;;4.95;;
22435;SDS011;11385;50.822;4.324;2023-04-25T03:34:16;16.42;;;5.10;;
22435;SDS011;11385;50.822;4.324;2023-04-25T03:36:43;19.23;;;5.25;;
22435;SDS011;11385;50.822;4.324;2023-04-25T03:39:10;13.28;;;4.90;;
22435;SDS011;11385;50.822;4.324;2023-04-25T03:41:36;21.42;;;5.97;;
22435;SDS011;11385;50.822;4.324;2023-04-25T03:44:03;18.70;;;4.15;;
22435;SDS011;11385;50.822;4.324;2023-04-25T03:46:30;19.05;;;4.53;;
22435;SDS011;11385;50.822;4.324;2023-04-25T03:48:56;21.87;;;5.58;;
22435;SDS011;11385;50.822;4.324;2023-04-25T03:51:23;24.65;;;5.83;;
22435;SDS011;11385;50.822;4.324;2023-04-25T03:53:49;20.32;;;4.47;;
22435;SDS011;11385;50.822;4.324;2023-04-25T03:56:16;17.95;;;4.80;;
22435;SDS011;11385;50.822;4.324;2023-04-25T03:58:43;22.37;;;6.10;;
22435;SDS011;11385;50.822;4.324;2023-04-25T04:01:10;21.42;;;5.22;;
22435;SDS011;11385;50.822;4.324;2023-04-25T04:03:36;22.75;;;4.58;;
22435;SDS011;11385;50.822;4.324;2023-04-25T04:06:03;23.55;;;5.20;;
22435;SDS011;11385;50.822;4.324;2023-04-25T04:08:31;15.70;;;4.85;;
22435;SDS011;11385;50.822;4.324;2023-04-25T04:10:59;22.58;;;4.95;;
22435;SDS011;11385;50.822;4.324;2023-04-25T04:13:26;19.17;;;4.67;;
22435;SDS011;11385;50.822;4.324;2023-04-25T04:15:53;17.82;;;4.47;;
22435;SDS011;11385;50.822;4.324;2023-04-25T04:18:19;14.85;;;3.98;;
22435;SDS011;11385;50.822;4.324;2023-04-25T04:20:46;19.98;;;4.37;;
22435;SDS011;11385;50.822;4.324;2023-04-25T04:23:13;15.48;;;4.17;;
22435;SDS011;11385;50.822;4.324;2023-04-25T04:25:40;18.75;;;4.50;;
22435;SDS011;11385;50.822;4.324;2023-04-25T04:28:07;17.52;;;4.53;;
22435;SDS011;11385;50.822;4.324;2023-04-25T04:30:33;19.62;;;4.55;;
22435;SDS011;11385;50.822;4.324;2023-04-25T04:33:02;15.28;;;3.92;;
22435;SDS011;11385;50.822;4.324;2023-04-25T04:35:29;20.00;;;5.15;;
22435;SDS011;11385;50.822;4.324;2023-04-25T04:37:56;11.95;;;4.00;;
22435;SDS011;11385;50.822;4.324;2023-04-25T04:40:23;18.98;;;4.92;;
22435;SDS011;11385;50.822;4.324;2023-04-25T04:42:51;19.10;;;4.40;;
22435;SDS011;11385;50.822;4.324;2023-04-25T04:45:18;15.53;;;3.62;;
22435;SDS011;11385;50.822;4.324;2023-04-25T04:47:46;15.40;;;4.67;;
22435;SDS011;11385;50.822;4.324;2023-04-25T04:50:14;13.03;;;4.37;;
22435;SDS011;11385;50.822;4.324;2023-04-25T04:52:41;18.10;;;3.95;;
22435;SDS011;11385;50.822;4.324;2023-04-25T04:55:08;14.93;;;4.17;;
22435;SDS011;11385;50.822;4.324;2023-04-25T04:57:35;19.50;;;4.45;;
22435;SDS011;11385;50.822;4.324;2023-04-25T05:00:04;12.80;;;4.55;;
22435;SDS011;11385;50.822;4.324;2023-04-25T05:02:34;14.33;;;4.17;;
22435;SDS011;11385;50.822;4.324;2023-04-25T05:05:01;14.63;;;5.83;;
22435;SDS011;11385;50.822;4.324;2023-04-25T05:07:27;18.60;;;5.35;;
22435;SDS011;11385;50.822;4.324;2023-04-25T05:09:54;10.60;;;4.72;;
22435;SDS011;11385;50.822;4.324;2023-04-25T05:12:20;16.45;;;5.83;;
22435;SDS011;11385;50.822;4.324;2023-04-25T05:14:48;16.90;;;4.97;;
22435;SDS011;11385;50.822;4.324;2023-04-25T05:17:14;19.05;;;4.90;;
22435;SDS011;11385;50.822;4.324;2023-04-25T05:19:41;19.20;;;4.55;;
22435;SDS011;11385;50.822;4.324;2023-04-25T05:22:08;14.80;;;4.03;;
22435;SDS011;11385;50.822;4.324;2023-04-25T05:24:34;13.75;;;4.50;;
22435;SDS011;11385;50.822;4.324;2023-04-25T05:27:01;16.60;;;5.20;;
22435;SDS011;11385;50.822;4.324;2023-04-25T05:29:27;14.33;;;4.30;;
22435;SDS011;11385;50.822;4.324;2023-04-25T05:31:54;15.40;;;6.12;;
22435;SDS011;11385;50.822;4.324;2023-04-25T05:34:21;14.50;;;4.80;;
22435;SDS011;11385;50.822;4.324;2023-04-25T05:36:47;18.32;;;5.55;;
22435;SDS011;11385;50.822;4.324;2023-04-25T05:39:15;19.30;;;5.90;;
22435;SDS011;11385;50.822;4.324;2023-04-25T05:41:43;15.98;;;5.42;;
22435;SDS011;11385;50.822;4.324;2023-04-25T05:44:09;21.00;;;6.53;;
22435;SDS011;11385;50.822;4.324;2023-04-25T05:46:37;15.85;;;5.17;;
22435;SDS011;11385;50.822;4.324;2023-04-25T05:49:04;18.75;;;5.85;;
22435;SDS011;11385;50.822;4.324;2023-04-25T05:51:30;16.02;;;5.25;;
22435;SDS011;11385;50.822;4.324;2023-04-25T05:53:57;15.35;;;5.62;;
22435;SDS011;11385;50.822;4.324;2023-04-25T05:56:23;19.50;;;5.65;;
22435;SDS011;11385;50.822;4.324;2023-04-25T05:58:50;16.42;;;5.53;;
22435;SDS011;11385;50.822;4.324;2023-04-25T06:01:17;18.67;;;5.53;;
22435;SDS011;11385;50.822;4.324;2023-04-25T06:03:44;16.60;;;5.60;;
22435;SDS011;11385;50.822;4.324;2023-04-25T06:06:11;16.60;;;6.20;;
22435;SDS011;11385;50.822;4.324;2023-04-25T06:08:38;16.35;;;6.28;;
22435;SDS011;11385;50.822;4.324;2023-04-25T06:11:05;17.42;;;6.30;;
22435;SDS011;11385;50.822;4.324;2023-04-25T06:13:32;18.37;;;5.42;;
22435;SDS011;11385;50.822;4.324;2023-04-25T06:15:59;12.98;;;5.37;;
22435;SDS011;11385;50.822;4.324;2023-04-25T06:18:25;17.70;;;5.40;;
22435;SDS011;11385;50.822;4.324;2023-04-25T06:20:52;20.50;;;5.78;;
22435;SDS011;11385;50.822;4.324;2023-04-25T06:23:19;17.02;;;5.00;;
22435;SDS011;11385;50.822;4.324;2023-04-25T06:25:46;17.80;;;5.40;;
22435;SDS011;11385;50.822;4.324;2023-04-25T06:28:12;12.98;;;5.35;;
22435;SDS011;11385;50.822;4.324;2023-04-25T06:30:39;17.67;;;5.28;;
22435;SDS011;11385;50.822;4.324;2023-04-25T06:33:06;14.60;;;4.70;;
22435;SDS011;11385;50.822;4.324;2023-04-25T06:35:34;15.45;;;4.65;;
22435;SDS011;11385;50.822;4.324;2023-04-25T06:38:01;15.72;;;4.05;;
22435;SDS011;11385;50.822;4.324;2023-04-25T06:40:27;11.45;;;3.62;;
22435;SDS011;11385;50.822;4.324;2023-04-25T06:42:54;12.37;;;3.40;;
22435;SDS011;11385;50.822;4.324;2023-04-25T06:45:21;16.82;;;3.67;;
22435;SDS011;11385;50.822;4.324;2023-04-25T06:47:48;16.25;;;3.72;;
22435;SDS011;11385;50.822;4.324;2023-04-25T06:50:14;13.43;;;3.40;;
22435;SDS011;11385;50.822;4.324;2023-04-25T06:52:41;12.98;;;3.40;;
22435;SDS011;11385;50.822;4.324;2023-04-25T06:55:08;11.30;;;3.80;;
22435;SDS011;11385;50.822;4.324;2023-04-25T06:57:35;18.10;;;4.50;;
22435;SDS011;11385;50.822;4.324;2023-04-25T07:00:01;16.42;;;4.37;;
22435;SDS011;11385;50.822;4.324;2023-04-25T07:02:31;17.80;;;4.50;;
22435;SDS011;11385;50.822;4.324;2023-04-25T07:04:57;15.32;;;4.33;;
22435;SDS011;11385;50.822;4.324;2023-04-25T07:07:25;22.17;;;4.25;;
22435;SDS011;11385;50.822;4.324;2023-04-25T07:09:52;20.25;;;4.17;;
22435;SDS011;11385;50.822;4.324;2023-04-25T07:12:20;15.48;;;3.92;;
22435;SDS011;11385;50.822;4.324;2023-04-25T07:14:46;13.68;;;3.30;;
22435;SDS011;11385;50.822;4.324;2023-04-25T07:17:13;17.25;;;3.72;;
22435;SDS011;11385;50.822;4.324;2023-04-25T07:19:40;16.73;;;4.85;;
22435;SDS011;11385;50.822;4.324;2023-04-25T07:22:07;17.07;;;3.67;;
22435;SDS011;11385;50.822;4.324;2023-04-25T07:24:34;11.83;;;3.30;;
22435;SDS011;11385;50.822;4.324;2023-04-25T07:27:01;13.80;;;3.40;;
22435;SDS011;11385;50.822;4.324;2023-04-25T07:29:28;14.90;;;3.05;;
22435;SDS011;11385;50.822;4.324;2023-04-25T07:31:55;11.35;;;2.58;;
22435;SDS011;11385;50.822;4.324;2023-04-25T07:34:22;12.37;;;3.15;;
22435;SDS011;11385;50.822;4.324;2023-04-25T07:36:49;14.07;;;3.33;;
22435;SDS011;11385;50.822;4.324;2023-04-25T07:39:17;12.90;;;2.90;;
22435;SDS011;11385;50.822;4.324;2023-04-25T07:41:43;11.60;;;2.85;;
22435;SDS011;11385;50.822;4.324;2023-04-25T07:44:10;12.47;;;3.40;;
22435;SDS011;11385;50.822;4.324;2023-04-25T07:46:37;12.55;;;2.95;;
22435;SDS011;11385;50.822;4.324;2023-04-25T07:49:04;15.93;;;3.15;;
22435;SDS011;11385;50.822;4.324;2023-04-25T07:51:30;16.60;;;4.05;;
22435;SDS011;11385;50.822;4.324;2023-04-25T07:53:57;16.45;;;3.42;;
22435;SDS011;11385;50.822;4.324;2023-04-25T07:56:25;9.73;;;2.77;;
22435;SDS011;11385;50.822;4.324;2023-04-25T07:58:51;13.35;;;3.50;;
22435;SDS011;11385;50.822;4.324;2023-04-25T08:01:18;13.80;;;2.72;;
22435;SDS011;11385;50.822;4.324;2023-04-25T08:03:47;7.70;;;2.15;;
22435;SDS011;11385;50.822;4.324;2023-04-25T08:06:13;11.12;;;2.72;;
22435;SDS011;11385;50.822;4.324;2023-04-25T08:08:40;12.47;;;2.42;;
22435;SDS011;11385;50.822;4.324;2023-04-25T08:11:07;13.38;;;3.17;;
22435;SDS011;11385;50.822;4.324;2023-04-25T08:13:33;16.95;;;3.10;;
22435;SDS011;11385;50.822;4.324;2023-04-25T08:16:00;13.30;;;2.62;;
22435;SDS011;11385;50.822;4.324;2023-04-25T08:18:27;11.15;;;2.95;;
22435;SDS011;11385;50.822;4.324;2023-04-25T08:20:54;15.13;;;3.08;;
22435;SDS011;11385;50.822;4.324;2023-04-25T08:23:21;11.22;;;3.10;;
22435;SDS011;11385;50.822;4.324;2023-04-25T08:25:48;11.35;;;2.62;;
22435;SDS011;11385;50.822;4.324;2023-04-25T08:28:15;13.38;;;3.27;;
22435;SDS011;11385;50.822;4.324;2023-04-25T08:30:42;11.18;;;2.42;;
22435;SDS011;11385;50.822;4.324;2023-04-25T08:33:08;18.95;;;3.08;;
22435;SDS011;11385;50.822;4.324;2023-04-25T08:35:36;11.57;;;2.27;;
22435;SDS011;11385;50.822;4.324;2023-04-25T08:38:03;10.43;;;2.25;;
22435;SDS011;11385;50.822;4.324;2023-04-25T08:40:30;14.70;;;2.87;;
22435;SDS011;11385;50.822;4.324;2023-04-25T08:43:00;13.90;;;2.72;;
22435;SDS011;11385;50.822;4.324;2023-04-25T08:45:29;9.58;;;3.17;;
22435;SDS011;11385;50.822;4.324;2023-04-25T08:47:58;10.05;;;2.65;;
22435;SDS011;11385;50.822;4.324;2023-04-25T08:50:25;10.13;;;2.80;;
22435;SDS011;11385;50.822;4.324;2023-04-25T08:52:53;9.23;;;2.72;;
22435;SDS011;11385;50.822;4.324;2023-04-25T08:55:22;11.75;;;2.58;;
22435;SDS011;11385;50.822;4.324;2023-04-25T08:57:49;11.10;;;2.83;;
22435;SDS011;11385;50.822;4.324;2023-04-25T09:00:17;10.55;;;2.90;;
22435;SDS011;11385;50.822;4.324;2023-04-25T09:02:45;8.65;;;2.30;;
22435;SDS011;11385;50.822;4.324;2023-04-25T09:05:13;11.68;;;2.45;;
22435;SDS011;11385;50.822;4.324;2023-04-25T09:07:40;7.40;;;2.05;;
22435;SDS011;11385;50.822;4.324;2023-04-25T09:10:07;10.50;;;1.92;;
22435;SDS011;11385;50.822;4.324;2023-04-25T09:12:34;10.90;;;2.37;;
22435;SDS011;11385;50.822;4.324;2023-04-25T09:15:06;6.42;;;1.67;;
22435;SDS011;11385;50.822;4.324;2023-04-25T09:17:35;8.48;;;2.00;;
22435;SDS011;11385;50.822;4.324;2023-04-25T09:20:07;7.75;;;1.87;;
22435;SDS011;11385;50.822;4.324;2023-04-25T09:22:36;12.50;;;2.52;;
22435;SDS011;11385;50.822;4.324;2023-04-25T09:25:11;9.38;;;2.17;;
22435;SDS011;11385;50.822;4.324;2023-04-25T09:27:49;12.58;;;3.25;;
22435;SDS011;11385;50.822;4.324;2023-04-25T09:30:17;15.08;;;3.05;;
22435;SDS011;11385;50.822;4.324;2023-04-25T09:32:44;10.03;;;2.22;;
22435;SDS011;11385;50.822;4.324;2023-04-25T09:35:11;9.85;;;1.80;;
22435;SDS011;11385;50.822;4.324;2023-04-25T09:37:41;9.68;;;2.25;;
22435;SDS011;11385;50.822;4.324;2023-04-25T09:40:08;9.68;;;2.25;;
22435;SDS011;11385;50.822;4.324;2023-04-25T09:42:40;8.43;;;2.05;;
22435;SDS011;11385;50.822;4.324;2023-04-25T09:45:07;8.57;;;1.80;;
22435;SDS011;11385;50.822;4.324;2023-04-25T09:47:36;16.17;;;2.65;;
22435;SDS011;11385;50.822;4.324;2023-04-25T09:50:04;10.80;;;1.90;;
22435;SDS011;11385;50.822;4.324;2023-04-25T09:52:41;6.40;;;1.80;;
22435;SDS011;11385;50.822;4.324;2023-04-25T09:55:07;7.08;;;1.90;;
22435;SDS011;11385;50.822;4.324;2023-04-25T09:57:35;9.53;;;2.15;;
22435;SDS011;11385;50.822;4.324;2023-04-25T10:00:05;9.33;;;2.05;;
22435;SDS011;11385;50.822;4.324;2023-04-25T10:02:35;9.73;;;2.10;;
22435;SDS011;11385;50.822;4.324;2023-04-25T10:05:05;7.97;;;1.87;;
22435;SDS011;11385;50.822;4.324;2023-04-25T10:07:33;9.38;;;2.12;;
22435;SDS011;11385;50.822;4.324;2023-04-25T10:10:04;10.00;;;2.60;;
22435;SDS011;11385;50.822;4.324;2023-04-25T10:12:32;5.37;;;1.30;;
22435;SDS011;11385;50.822;4.324;2023-04-25T10:15:00;9.18;;;2.60;;
22435;SDS011;11385;50.822;4.324;2023-04-25T10:17:28;5.00;;;1.27;;
22435;SDS011;11385;50.822;4.324;2023-04-25T10:19:55;6.87;;;1.55;;
22435;SDS011;11385;50.822;4.324;2023-04-25T10:22:25;5.47;;;1.50;;
22435;SDS011;11385;50.822;4.324;2023-04-25T10:24:57;7.35;;;1.32;;
22435;SDS011;11385;50.822;4.324;2023-04-25T10:27:26;7.25;;;1.67;;
22435;SDS011;11385;50.822;4.324;2023-04-25T10:30:00;6.62;;;1.35;;
22435;SDS011;11385;50.822;4.324;2023-04-25T10:32:31;6.50;;;1.27;;
22435;SDS011;11385;50.822;4.324;2023-04-25T10:35:09;5.50;;;1.07;;
22435;SDS011;11385;50.822;4.324;2023-04-25T10:37:34;3.80;;;0.90;;
22435;SDS011;11385;50.822;4.324;2023-04-25T10:40:07;6.35;;;1.22;;
22435;SDS011;11385;50.822;4.324;2023-04-25T10:42:35;5.45;;;1.17;;
22435;SDS011;11385;50.822;4.324;2023-04-25T10:45:04;5.67;;;1.30;;
22435;SDS011;11385;50.822;4.324;2023-04-25T10:47:35;10.90;;;1.45;;
22435;SDS011;11385;50.822;4.324;2023-04-25T10:50:06;7.62;;;1.82;;
22435;SDS011;11385;50.822;4.324;2023-04-25T10:52:34;7.80;;;1.55;;
22435;SDS011;11385;50.822;4.324;2023-04-25T10:55:03;7.45;;;1.37;;
22435;SDS011;11385;50.822;4.324;2023-04-25T10:57:32;5.08;;;1.30;;
22435;SDS011;11385;50.822;4.324;2023-04-25T11:00:08;7.28;;;1.50;;
22435;SDS011;11385;50.822;4.324;2023-04-25T11:02:58;9.25;;;2.35;;
22435;SDS011;11385;50.822;4.324;2023-04-25T11:05:29;9.23;;;2.20;;
22435;SDS011;11385;50.822;4.324;2023-04-25T11:07:59;8.63;;;2.15;;
22435;SDS011;11385;50.822;4.324;2023-04-25T11:10:26;8.65;;;1.87;;
22435;SDS011;11385;50.822;4.324;2023-04-25T11:12:57;9.28;;;2.30;;
22435;SDS011;11385;50.822;4.324;2023-04-25T11:15:25;6.90;;;1.98;;
22435;SDS011;11385;50.822;4.324;2023-04-25T11:17:54;13.88;;;2.90;;
22435;SDS011;11385;50.822;4.324;2023-04-25T11:20:21;5.60;;;1.52;;
22435;SDS011;11385;50.822;4.324;2023-04-25T11:22:51;8.35;;;2.22;;
22435;SDS011;11385;50.822;4.324;2023-04-25T11:25:19;9.55;;;2.00;;
22435;SDS011;11385;50.822;4.324;2023-04-25T11:27:50;6.53;;;1.77;;
22435;SDS011;11385;50.822;4.324;2023-04-25T11:30:19;7.67;;;1.60;;
22435;SDS011;11385;50.822;4.324;2023-04-25T11:32:46;7.80;;;1.32;;
22435;SDS011;11385;50.822;4.324;2023-04-25T11:35:13;7.22;;;1.90;;
22435;SDS011;11385;50.822;4.324;2023-04-25T11:37:41;9.53;;;2.05;;
22435;SDS011;11385;50.822;4.324;2023-04-25T11:40:09;5.90;;;1.92;;
22435;SDS011;11385;50.822;4.324;2023-04-25T11:42:38;7.85;;;1.75;;
22435;SDS011;11385;50.822;4.324;2023-04-25T11:45:07;6.97;;;1.37;;
22435;SDS011;11385;50.822;4.324;2023-04-25T11:47:35;8.10;;;1.32;;
22435;SDS011;11385;50.822;4.324;2023-04-25T11:50:02;6.72;;;2.08;;
22435;SDS011;11385;50.822;4.324;2023-04-25T11:55:07;5.83;;;1.77;;
22435;SDS011;11385;50.822;4.324;2023-04-25T11:57:37;6.50;;;1.75;;
22435;SDS011;11385;50.822;4.324;2023-04-25T12:00:10;6.90;;;1.62;;
22435;SDS011;11385;50.822;4.324;2023-04-25T12:02:42;7.55;;;1.70;;
22435;SDS011;11385;50.822;4.324;2023-04-25T12:05:11;4.37;;;1.40;;
22435;SDS011;11385;50.822;4.324;2023-04-25T12:07:38;4.05;;;1.07;;
22435;SDS011;11385;50.822;4.324;2023-04-25T12:10:07;6.10;;;1.55;;
22435;SDS011;11385;50.822;4.324;2023-04-25T12:12:36;4.10;;;1.10;;
22435;SDS011;11385;50.822;4.324;2023-04-25T12:15:11;6.17;;;1.50;;
22435;SDS011;11385;50.822;4.324;2023-04-25T12:17:45;4.08;;;1.30;;
22435;SDS011;11385;50.822;4.324;2023-04-25T12:20:14;9.13;;;1.90;;
22435;SDS011;11385;50.822;4.324;2023-04-25T12:22:44;5.80;;;1.65;;
22435;SDS011;11385;50.822;4.324;2023-04-25T12:25:17;10.23;;;1.45;;
22435;SDS011;11385;50.822;4.324;2023-04-25T12:27:48;5.55;;;1.10;;
22435;SDS011;11385;50.822;4.324;2023-04-25T12:30:15;9.83;;;2.52;;
22435;SDS011;11385;50.822;4.324;2023-04-25T12:32:42;6.17;;;0.98;;
22435;SDS011;11385;50.822;4.324;2023-04-25T12:35:08;2.90;;;1.25;;
22435;SDS011;11385;50.822;4.324;2023-04-25T12:37:35;3.33;;;1.05;;
22435;SDS011;11385;50.822;4.324;2023-04-25T12:40:02;5.20;;;1.40;;
22435;SDS011;11385;50.822;4.324;2023-04-25T12:42:29;2.42;;;0.75;;
22435;SDS011;11385;50.822;4.324;2023-04-25T12:44:56;3.80;;;0.95;;
22435;SDS011;11385;50.822;4.324;2023-04-25T12:47:23;4.40;;;1.27;;
22435;SDS011;11385;50.822;4.324;2023-04-25T12:49:50;6.03;;;1.10;;
22435;SDS011;11385;50.822;4.324;2023-04-25T12:52:17;5.92;;;1.12;;
22435;SDS011;11385;50.822;4.324;2023-04-25T12:54:43;5.05;;;1.02;;
22435;SDS011;11385;50.822;4.324;2023-04-25T12:57:10;5.25;;;1.37;;
22435;SDS011;11385;50.822;4.324;2023-04-25T12:59:37;5.67;;;1.25;;
22435;SDS011;11385;50.822;4.324;2023-04-25T13:02:04;4.60;;;1.52;;
22435;SDS011;11385;50.822;4.324;2023-04-25T13:04:30;7.12;;;1.40;;
22435;SDS011;11385;50.822;4.324;2023-04-25T13:06:57;4.78;;;1.37;;
22435;SDS011;11385;50.822;4.324;2023-04-25T13:09:23;6.33;;;1.32;;
22435;SDS011;11385;50.822;4.324;2023-04-25T13:11:50;4.85;;;1.40;;
22435;SDS011;11385;50.822;4.324;2023-04-25T13:14:17;6.53;;;1.52;;
22435;SDS011;11385;50.822;4.324;2023-04-25T13:16:44;5.25;;;1.07;;
22435;SDS011;11385;50.822;4.324;2023-04-25T13:19:11;5.60;;;1.45;;
22435;SDS011;11385;50.822;4.324;2023-04-25T13:21:38;6.40;;;1.22;;
22435;SDS011;11385;50.822;4.324;2023-04-25T13:24:04;5.50;;;1.45;;
22435;SDS011;11385;50.822;4.324;2023-04-25T13:26:31;5.53;;;1.20;;
22435;SDS011;11385;50.822;4.324;2023-04-25T13:28:58;8.43;;;1.32;;
22435;SDS011;11385;50.822;4.324;2023-04-25T13:31:26;5.33;;;1.02;;
22435;SDS011;11385;50.822;4.324;2023-04-25T13:33:55;5.22;;;1.45;;
22435;SDS011;11385;50.822;4.324;2023-04-25T13:36:22;4.85;;;1.22;;
22435;SDS011;11385;50.822;4.324;2023-04-25T13:38:48;4.40;;;1.10;;
22435;SDS011;11385;50.822;4.324;2023-04-25T13:41:15;6.15;;;1.50;;
22435;SDS011;11385;50.822;4.324;2023-04-25T13:43:44;7.65;;;1.70;;
22435;SDS011;11385;50.822;4.324;2023-04-25T13:46:13;3.87;;;1.30;;
22435;SDS011;11385;50.822;4.324;2023-04-25T13:48:41;6.10;;;1.35;;
22435;SDS011;11385;50.822;4.324;2023-04-25T13:51:09;4.92;;;1.17;;
22435;SDS011;11385;50.822;4.324;2023-04-25T13:53:36;5.70;;;1.20;;
22435;SDS011;11385;50.822;4.324;2023-04-25T13:56:04;3.80;;;1.10;;
22435;SDS011;11385;50.822;4.324;2023-04-25T13:58:31;8.13;;;1.67;;
22435;SDS011;11385;50.822;4.324;2023-04-25T14:00:58;4.65;;;1.27;;
22435;SDS011;11385;50.822;4.324;2023-04-25T14:03:25;3.47;;;1.20;;
22435;SDS011;11385;50.822;4.324;2023-04-25T14:05:51;7.87;;;1.75;;
22435;SDS011;11385;50.822;4.324;2023-04-25T14:08:18;5.37;;;1.42;;
22435;SDS011;11385;50.822;4.324;2023-04-25T14:10:45;5.15;;;1.25;;
22435;SDS011;11385;50.822;4.324;2023-04-25T14:13:12;7.35;;;1.50;;
22435;SDS011;11385;50.822;4.324;2023-04-25T14:15:39;6.53;;;1.42;;
22435;SDS011;11385;50.822;4.324;2023-04-25T14:18:05;5.42;;;1.10;;
22435;SDS011;11385;50.822;4.324;2023-04-25T14:20:32;5.03;;;1.55;;
22435;SDS011;11385;50.822;4.324;2023-04-25T14:22:59;3.75;;;1.25;;
22435;SDS011;11385;50.822;4.324;2023-04-25T14:25:27;7.25;;;1.50;;
22435;SDS011;11385;50.822;4.324;2023-04-25T14:27:53;4.15;;;1.10;;
22435;SDS011;11385;50.822;4.324;2023-04-25T14:30:20;5.60;;;1.47;;
22435;SDS011;11385;50.822;4.324;2023-04-25T14:32:48;5.12;;;1.15;;
22435;SDS011;11385;50.822;4.324;2023-04-25T14:35:15;3.70;;;1.40;;
22435;SDS011;11385;50.822;4.324;2023-04-25T14:37:42;5.40;;;1.37;;
22435;SDS011;11385;50.822;4.324;2023-04-25T14:40:10;3.52;;;1.30;;
22435;SDS011;11385;50.822;4.324;2023-04-25T14:42:39;7.37;;;1.70;;